sensor_id;sensor_type;location;lat;lon;timestamp;pressure;altitude;pressure_sealevel;temperature;humidity
7109;BME280;29079;41.930;25.558;2023-04-21T00:01:36;99173.16;;;11.35;100.00
7109;BME280;29079;41.930;25.558;2023-04-21T00:04:10;99169.78;;;11.32;100.00
7109;BME280;29079;41.930;25.558;2023-04-21T00:06:46;99174.06;;;11.25;100.00
7109;BME280;29079;41.930;25.558;2023-04-21T00:09:19;99168.56;;;11.27;100.00
7109;BME280;29079;41.930;25.558;2023-04-21T00:11:57;99163.78;;;11.48;100.00
7109;BME280;29079;41.930;25.558;2023-04-21T00:14:32;99090.34;;;10.89;100.00
7109;BME280;29079;41.930;25.558;2023-04-21T00:17:06;99164.75;;;11.29;100.00
7109;BME280;29079;41.930;25.558;2023-04-21T00:19:39;99158.00;;;11.07;100.00
7109;BME280;29079;41.930;25.558;2023-04-21T00:22:13;99161.13;;;11.03;100.00
7109;BME280;29079;41.930;25.558;2023-04-21T00:24:46;99150.94;;;10.88;100.00
7109;BME280;29079;41.930;25.558;2023-04-21T00:27:20;99151.69;;;10.71;100.00
7109;BME280;29079;41.930;25.558;2023-04-21T00:29:55;99159.13;;;11.05;100.00
7109;BME280;29079;41.930;25.558;2023-04-21T00:32:28;99162.41;;;10.98;100.00
7109;BME280;29079;41.930;25.558;2023-04-21T00:35:01;99153.44;;;10.90;100.00
7109;BME280;29079;41.930;25.558;2023-04-21T00:37:34;99149.34;;;10.95;100.00
7109;BME280;29079;41.930;25.558;2023-04-21T00:40:08;99147.47;;;10.78;100.00
7109;BME280;29079;41.930;25.558;2023-04-21T00:42:41;99145.31;;;10.82;100.00
7109;BME280;29079;41.930;25.558;2023-04-21T00:45:15;99150.78;;;10.52;100.00
7109;BME280;29079;41.930;25.558;2023-04-21T00:47:48;99145.88;;;10.48;100.00
7109;BME280;29079;41.930;25.558;2023-04-21T00:50:23;99142.47;;;10.55;100.00
7109;BME280;29079;41.930;25.558;2023-04-21T00:52:56;99139.00;;;10.83;100.00
7109;BME280;29079;41.930;25.558;2023-04-21T00:55:29;99134.41;;;10.75;100.00
7109;BME280;29079;41.930;25.558;2023-04-21T00:58:03;99137.13;;;10.55;100.00
7109;BME280;29079;41.930;25.558;2023-04-21T01:00:38;99134.09;;;10.50;100.00
7109;BME280;29079;41.930;25.558;2023-04-21T01:03:11;99136.34;;;10.45;100.00
7109;BME280;29079;41.930;25.558;2023-04-21T01:05:45;99135.66;;;10.43;100.00
7109;BME280;29079;41.930;25.558;2023-04-21T01:08:18;99128.53;;;10.61;100.00
7109;BME280;29079;41.930;25.558;2023-04-21T01:10:51;99133.19;;;10.59;100.00
7109;BME280;29079;41.930;25.558;2023-04-21T01:13:25;99121.03;;;10.47;100.00
7109;BME280;29079;41.930;25.558;2023-04-21T01:16:00;99120.63;;;10.42;100.00
7109;BME280;29079;41.930;25.558;2023-04-21T01:18:33;99127.94;;;10.30;100.00
7109;BME280;29079;41.930;25.558;2023-04-21T01:21:07;99120.38;;;10.25;100.00
7109;BME280;29079;41.930;25.558;2023-04-21T01:23:42;99122.44;;;10.32;100.00
7109;BME280;29079;41.930;25.558;2023-04-21T01:26:16;99130.03;;;10.46;100.00
7109;BME280;29079;41.930;25.558;2023-04-21T01:28:49;99129.34;;;10.24;100.00
7109;BME280;29079;41.930;25.558;2023-04-21T01:31:22;99128.78;;;10.40;100.00
7109;BME280;29079;41.930;25.558;2023-04-21T01:33:55;99125.44;;;11.04;100.00
7109;BME280;29079;41.930;25.558;2023-04-21T01:36:28;99122.06;;;10.74;100.00
7109;BME280;29079;41.930;25.558;2023-04-21T01:39:03;99117.44;;;10.09;100.00
7109;BME280;29079;41.930;25.558;2023-04-21T01:41:36;99126.00;;;10.03;100.00
7109;BME280;29079;41.930;25.558;2023-04-21T01:44:09;99116.53;;;10.28;100.00
7109;BME280;29079;41.930;25.558;2023-04-21T01:46:42;99118.69;;;10.24;100.00
7109;BME280;29079;41.930;25.558;2023-04-21T01:49:16;99116.44;;;10.20;100.00
7109;BME280;29079;41.930;25.558;2023-04-21T01:51:49;99110.00;;;10.22;100.00
7109;BME280;29079;41.930;25.558;2023-04-21T01:54:23;99118.44;;;10.08;100.00
7109;BME280;29079;41.930;25.558;2023-04-21T01:56:56;99117.88;;;9.94;100.00
7109;BME280;29079;41.930;25.558;2023-04-21T01:59:30;99118.19;;;9.82;100.00
7109;BME280;29079;41.930;25.558;2023-04-21T02:02:03;99128.13;;;9.89;100.00
7109;BME280;29079;41.930;25.558;2023-04-21T02:04:36;99130.66;;;10.01;100.00
7109;BME280;29079;41.930;25.558;2023-04-21T02:07:09;99128.66;;;10.22;100.00
7109;BME280;29079;41.930;25.558;2023-04-21T02:09:44;99131.53;;;9.72;100.00
7109;BME280;29079;41.930;25.558;2023-04-21T02:12:17;99138.66;;;9.71;100.00
7109;BME280;29079;41.930;25.558;2023-04-21T02:14:51;99136.13;;;9.70;100.00
7109;BME280;29079;41.930;25.558;2023-04-21T02:17:24;99130.66;;;9.81;100.00
7109;BME280;29079;41.930;25.558;2023-04-21T02:19:58;99120.56;;;9.75;100.00
7109;BME280;29079;41.930;25.558;2023-04-21T02:22:34;99126.19;;;9.72;100.00
7109;BME280;29079;41.930;25.558;2023-04-21T02:25:09;99127.16;;;9.51;100.00
7109;BME280;29079;41.930;25.558;2023-04-21T02:27:42;99127.31;;;9.79;100.00
7109;BME280;29079;41.930;25.558;2023-04-21T02:30:15;99122.41;;;10.51;100.00
7109;BME280;29079;41.930;25.558;2023-04-21T02:32:48;99122.06;;;10.17;100.00
7109;BME280;29079;41.930;25.558;2023-04-21T02:35:22;99123.06;;;10.06;100.00
7109;BME280;29079;41.930;25.558;2023-04-21T02:37:55;99122.31;;;10.43;100.00
7109;BME280;29079;41.930;25.558;2023-04-21T02:40:29;99125.66;;;10.45;100.00
7109;BME280;29079;41.930;25.558;2023-04-21T02:43:02;99123.94;;;9.67;100.00
7109;BME280;29079;41.930;25.558;2023-04-21T02:45:35;99119.34;;;10.26;100.00
7109;BME280;29079;41.930;25.558;2023-04-21T02:48:08;99125.63;;;9.58;100.00
7109;BME280;29079;41.930;25.558;2023-04-21T02:50:42;99126.53;;;10.16;100.00
7109;BME280;29079;41.930;25.558;2023-04-21T02:53:15;99122.59;;;10.30;100.00
7109;BME280;29079;41.930;25.558;2023-04-21T02:55:49;99114.16;;;10.25;100.00
7109;BME280;29079;41.930;25.558;2023-04-21T02:58:23;99113.44;;;10.52;100.00
7109;BME280;29079;41.930;25.558;2023-04-21T03:00:56;99122.59;;;10.30;100.00
7109;BME280;29079;41.930;25.558;2023-04-21T03:03:29;99126.59;;;9.87;100.00
7109;BME280;29079;41.930;25.558;2023-04-21T03:06:03;99127.28;;;9.59;100.00
7109;BME280;29079;41.930;25.558;2023-04-21T03:08:36;99128.00;;;9.71;100.00
7109;BME280;29079;41.930;25.558;2023-04-21T03:11:11;99136.25;;;9.39;100.00
7109;BME280;29079;41.930;25.558;2023-04-21T03:13:45;99138.66;;;9.52;100.00
7109;BME280;29079;41.930;25.558;2023-04-21T03:16:18;99138.53;;;9.53;100.00
7109;BME280;29079;41.930;25.558;2023-04-21T03:18:52;99139.72;;;9.20;100.00
7109;BME280;29079;41.930;25.558;2023-04-21T03:21:25;99132.75;;;9.38;100.00
7109;BME280;29079;41.930;25.558;2023-04-21T03:23:58;99140.31;;;10.11;100.00
7109;BME280;29079;41.930;25.558;2023-04-21T03:26:32;99135.38;;;10.36;100.00
7109;BME280;29079;41.930;25.558;2023-04-21T03:29:06;99144.53;;;9.94;100.00
7109;BME280;29079;41.930;25.558;2023-04-21T03:31:40;99141.75;;;9.47;100.00
7109;BME280;29079;41.930;25.558;2023-04-21T03:34:13;99137.94;;;9.40;100.00
7109;BME280;29079;41.930;25.558;2023-04-21T03:36:46;99135.25;;;9.30;100.00
7109;BME280;29079;41.930;25.558;2023-04-21T03:39:19;99148.25;;;9.04;100.00
7109;BME280;29079;41.930;25.558;2023-04-21T03:41:54;99145.59;;;9.04;100.00
7109;BME280;29079;41.930;25.558;2023-04-21T03:44:27;99139.19;;;9.26;100.00
7109;BME280;29079;41.930;25.558;2023-04-21T03:47:00;99144.22;;;9.29;100.00
7109;BME280;29079;41.930;25.558;2023-04-21T03:49:34;99151.22;;;9.11;100.00
7109;BME280;29079;41.930;25.558;2023-04-21T03:52:08;99151.59;;;9.06;100.00
7109;BME280;29079;41.930;25.558;2023-04-21T03:54:42;99154.53;;;9.03;100.00
7109;BME280;29079;41.930;25.558;2023-04-21T03:57:16;99151.97;;;8.92;100.00
7109;BME280;29079;41.930;25.558;2023-04-21T03:59:50;99160.13;;;9.00;100.00
7109;BME280;29079;41.930;25.558;2023-04-21T04:02:23;99162.09;;;8.98;100.00
7109;BME280;29079;41.930;25.558;2023-04-21T04:04:56;99157.91;;;9.15;100.00
7109;BME280;29079;41.930;25.558;2023-04-21T04:07:30;99161.56;;;9.04;100.00
7109;BME280;29079;41.930;25.558;2023-04-21T04:10:02;99172.06;;;9.05;100.00
7109;BME280;29079;41.930;25.558;2023-04-21T04:12:38;99164.34;;;9.02;100.00
7109;BME280;29079;41.930;25.558;2023-04-21T04:15:12;99162.09;;;8.98;100.00
7109;BME280;29079;41.930;25.558;2023-04-21T04:17:46;99170.91;;;8.98;100.00
7109;BME280;29079;41.930;25.558;2023-04-21T04:20:19;99172.38;;;9.12;100.00
7109;BME280;29079;41.930;25.558;2023-04-21T04:22:52;99171.22;;;8.74;100.00
7109;BME280;29079;41.930;25.558;2023-04-21T04:25:25;99166.50;;;8.78;100.00
7109;BME280;29079;41.930;25.558;2023-04-21T04:27:59;99176.00;;;8.70;100.00
7109;BME280;29079;41.930;25.558;2023-04-21T04:30:32;99178.66;;;8.49;100.00
7109;BME280;29079;41.930;25.558;2023-04-21T04:33:06;99170.19;;;8.86;100.00
7109;BME280;29079;41.930;25.558;2023-04-21T04:35:41;99178.84;;;8.79;100.00
7109;BME280;29079;41.930;25.558;2023-04-21T04:38:14;99173.81;;;8.85;100.00
7109;BME280;29079;41.930;25.558;2023-04-21T04:40:52;99180.81;;;8.86;100.00
7109;BME280;29079;41.930;25.558;2023-04-21T04:43:26;99189.34;;;8.80;100.00
7109;BME280;29079;41.930;25.558;2023-04-21T04:46:00;99184.00;;;8.49;100.00
7109;BME280;29079;41.930;25.558;2023-04-21T04:48:33;99194.28;;;8.64;100.00
7109;BME280;29079;41.930;25.558;2023-04-21T04:51:06;99193.22;;;8.45;100.00
7109;BME280;29079;41.930;25.558;2023-04-21T04:53:39;99192.16;;;8.58;100.00
7109;BME280;29079;41.930;25.558;2023-04-21T04:56:12;99191.88;;;8.82;100.00
7109;BME280;29079;41.930;25.558;2023-04-21T04:58:47;99194.53;;;8.82;100.00
7109;BME280;29079;41.930;25.558;2023-04-21T05:01:20;99191.72;;;8.83;100.00
7109;BME280;29079;41.930;25.558;2023-04-21T05:03:56;99187.38;;;8.82;100.00
7109;BME280;29079;41.930;25.558;2023-04-21T05:06:29;99183.41;;;8.98;100.00
7109;BME280;29079;41.930;25.558;2023-04-21T05:09:03;99186.56;;;9.32;100.00
7109;BME280;29079;41.930;25.558;2023-04-21T05:11:36;99180.22;;;9.23;100.00
7109;BME280;29079;41.930;25.558;2023-04-21T05:14:11;99182.97;;;9.53;100.00
7109;BME280;29079;41.930;25.558;2023-04-21T05:16:45;99194.31;;;9.55;100.00
7109;BME280;29079;41.930;25.558;2023-04-21T05:19:18;99182.72;;;9.66;100.00
7109;BME280;29079;41.930;25.558;2023-04-21T05:21:50;99186.91;;;9.88;100.00
7109;BME280;29079;41.930;25.558;2023-04-21T05:24:24;99186.47;;;10.22;100.00
7109;BME280;29079;41.930;25.558;2023-04-21T05:26:57;99177.63;;;10.41;100.00
7109;BME280;29079;41.930;25.558;2023-04-21T05:29:31;99179.44;;;10.31;100.00
7109;BME280;29079;41.930;25.558;2023-04-21T05:32:05;99177.47;;;10.52;100.00
7109;BME280;29079;41.930;25.558;2023-04-21T05:34:40;99178.38;;;10.71;100.00
7109;BME280;29079;41.930;25.558;2023-04-21T05:37:13;99180.63;;;11.03;99.52
7109;BME280;29079;41.930;25.558;2023-04-21T05:39:46;99179.69;;;10.94;99.93
7109;BME280;29079;41.930;25.558;2023-04-21T05:42:19;99181.97;;;10.89;100.00
7109;BME280;29079;41.930;25.558;2023-04-21T05:44:54;99180.19;;;11.08;99.69
7109;BME280;29079;41.930;25.558;2023-04-21T05:47:27;99178.81;;;11.31;99.07
7109;BME280;29079;41.930;25.558;2023-04-21T05:50:00;99173.38;;;11.23;99.17
7109;BME280;29079;41.930;25.558;2023-04-21T05:52:33;99170.56;;;11.25;99.41
7109;BME280;29079;41.930;25.558;2023-04-21T05:55:07;99176.63;;;11.45;99.02
7109;BME280;29079;41.930;25.558;2023-04-21T05:57:40;99171.38;;;11.53;99.57
7109;BME280;29079;41.930;25.558;2023-04-21T06:00:16;99168.16;;;11.49;100.00
7109;BME280;29079;41.930;25.558;2023-04-21T06:02:49;99167.63;;;11.64;100.00
7109;BME280;29079;41.930;25.558;2023-04-21T06:05:22;99160.81;;;11.88;100.00
7109;BME280;29079;41.930;25.558;2023-04-21T06:07:56;99166.34;;;12.04;99.95
7109;BME280;29079;41.930;25.558;2023-04-21T06:10:29;99163.47;;;12.24;99.27
7109;BME280;29079;41.930;25.558;2023-04-21T06:13:03;99163.31;;;12.25;97.69
7109;BME280;29079;41.930;25.558;2023-04-21T06:15:37;99164.38;;;12.32;96.70
7109;BME280;29079;41.930;25.558;2023-04-21T06:18:10;99170.53;;;12.51;96.31
7109;BME280;29079;41.930;25.558;2023-04-21T06:20:48;99174.25;;;12.58;95.43
7109;BME280;29079;41.930;25.558;2023-04-21T06:23:21;99169.00;;;12.75;92.69
7109;BME280;29079;41.930;25.558;2023-04-21T06:25:58;99170.00;;;12.74;90.93
7109;BME280;29079;41.930;25.558;2023-04-21T06:28:33;99181.63;;;12.91;89.10
7109;BME280;29079;41.930;25.558;2023-04-21T06:31:08;99173.16;;;13.03;88.52
7109;BME280;29079;41.930;25.558;2023-04-21T06:33:48;99169.09;;;12.91;89.04
7109;BME280;29079;41.930;25.558;2023-04-21T06:36:22;99173.69;;;13.07;89.94
7109;BME280;29079;41.930;25.558;2023-04-21T06:38:55;99170.22;;;13.23;88.01
7109;BME280;29079;41.930;25.558;2023-04-21T06:41:28;99167.56;;;13.23;86.63
7109;BME280;29079;41.930;25.558;2023-04-21T06:44:01;99169.53;;;13.21;85.56
7109;BME280;29079;41.930;25.558;2023-04-21T06:46:35;99174.59;;;13.32;85.78
7109;BME280;29079;41.930;25.558;2023-04-21T06:49:08;99172.66;;;13.43;86.31
7109;BME280;29079;41.930;25.558;2023-04-21T06:51:42;99165.78;;;13.40;87.68
7109;BME280;29079;41.930;25.558;2023-04-21T06:54:15;99170.81;;;13.43;89.67
7109;BME280;29079;41.930;25.558;2023-04-21T06:56:49;99178.34;;;13.39;88.89
7109;BME280;29079;41.930;25.558;2023-04-21T06:59:22;99178.84;;;13.35;88.60
7109;BME280;29079;41.930;25.558;2023-04-21T07:01:56;99170.31;;;13.39;88.26
7109;BME280;29079;41.930;25.558;2023-04-21T07:04:29;99173.38;;;13.61;88.35
7109;BME280;29079;41.930;25.558;2023-04-21T07:07:03;99183.06;;;13.54;87.55
7109;BME280;29079;41.930;25.558;2023-04-21T07:09:36;99183.59;;;13.66;87.47
7109;BME280;29079;41.930;25.558;2023-04-21T07:12:09;99179.75;;;13.76;87.46
7109;BME280;29079;41.930;25.558;2023-04-21T07:14:43;99181.44;;;13.78;87.99
7109;BME280;29079;41.930;25.558;2023-04-21T07:17:18;99181.78;;;13.74;89.36
7109;BME280;29079;41.930;25.558;2023-04-21T07:19:51;99178.25;;;13.82;89.73
7109;BME280;29079;41.930;25.558;2023-04-21T07:22:24;99184.97;;;13.86;89.58
7109;BME280;29079;41.930;25.558;2023-04-21T07:24:57;99182.75;;;13.73;89.28
7109;BME280;29079;41.930;25.558;2023-04-21T07:27:30;99176.75;;;13.80;88.89
7109;BME280;29079;41.930;25.558;2023-04-21T07:30:04;99176.06;;;13.78;88.68
7109;BME280;29079;41.930;25.558;2023-04-21T07:32:38;99176.91;;;13.78;88.01
7109;BME280;29079;41.930;25.558;2023-04-21T07:35:12;99179.59;;;13.86;86.50
7109;BME280;29079;41.930;25.558;2023-04-21T07:37:45;99179.78;;;14.09;87.02
7109;BME280;29079;41.930;25.558;2023-04-21T07:40:20;99176.25;;;14.17;85.58
7109;BME280;29079;41.930;25.558;2023-04-21T07:42:53;99182.47;;;14.09;85.65
7109;BME280;29079;41.930;25.558;2023-04-21T07:45:26;99173.94;;;14.06;84.78
7109;BME280;29079;41.930;25.558;2023-04-21T07:48:01;99179.59;;;14.03;84.60
7109;BME280;29079;41.930;25.558;2023-04-21T07:50:34;99169.72;;;14.20;83.28
7109;BME280;29079;41.930;25.558;2023-04-21T07:53:07;99173.22;;;14.37;83.51
7109;BME280;29079;41.930;25.558;2023-04-21T07:55:40;99170.16;;;14.56;82.27
7109;BME280;29079;41.930;25.558;2023-04-21T07:58:14;99174.53;;;14.57;80.18
7109;BME280;29079;41.930;25.558;2023-04-21T08:00:47;99173.38;;;14.68;79.59
7109;BME280;29079;41.930;25.558;2023-04-21T08:03:22;99170.00;;;14.74;78.38
7109;BME280;29079;41.930;25.558;2023-04-21T08:05:55;99165.94;;;14.87;77.92
7109;BME280;29079;41.930;25.558;2023-04-21T08:08:28;99168.53;;;15.11;78.14
7109;BME280;29079;41.930;25.558;2023-04-21T08:11:02;99168.25;;;14.98;77.91
7109;BME280;29079;41.930;25.558;2023-04-21T08:13:36;99163.88;;;14.97;78.36
7109;BME280;29079;41.930;25.558;2023-04-21T08:16:10;99156.78;;;15.04;78.44
7109;BME280;29079;41.930;25.558;2023-04-21T08:18:44;99156.00;;;14.95;78.14
7109;BME280;29079;41.930;25.558;2023-04-21T08:21:17;99153.81;;;14.99;79.32
7109;BME280;29079;41.930;25.558;2023-04-21T08:23:50;99143.91;;;15.31;75.94
7109;BME280;29079;41.930;25.558;2023-04-21T08:26:23;99144.75;;;15.31;75.57
7109;BME280;29079;41.930;25.558;2023-04-21T08:28:57;99139.81;;;15.43;75.36
7109;BME280;29079;41.930;25.558;2023-04-21T08:31:32;99137.81;;;15.69;75.59
7109;BME280;29079;41.930;25.558;2023-04-21T08:34:07;99142.97;;;15.78;73.76
7109;BME280;29079;41.930;25.558;2023-04-21T08:36:40;99138.66;;;15.92;70.44
7109;BME280;29079;41.930;25.558;2023-04-21T08:39:14;99136.97;;;15.91;68.57
7109;BME280;29079;41.930;25.558;2023-04-21T08:41:47;99127.28;;;16.05;69.38
7109;BME280;29079;41.930;25.558;2023-04-21T08:44:21;99134.84;;;16.25;67.71
7109;BME280;29079;41.930;25.558;2023-04-21T08:46:55;99124.63;;;16.35;67.12
7109;BME280;29079;41.930;25.558;2023-04-21T08:49:29;99124.13;;;16.40;61.70
7109;BME280;29079;41.930;25.558;2023-04-21T08:52:03;99123.06;;;16.41;59.34
7109;BME280;29079;41.930;25.558;2023-04-21T08:54:36;99117.13;;;16.45;59.96
7109;BME280;29079;41.930;25.558;2023-04-21T08:57:10;99121.91;;;16.73;60.26
7109;BME280;29079;41.930;25.558;2023-04-21T08:59:46;99119.84;;;16.75;59.24
7109;BME280;29079;41.930;25.558;2023-04-21T09:02:20;99125.88;;;16.77;57.11
7109;BME280;29079;41.930;25.558;2023-04-21T09:04:55;99120.13;;;16.80;57.19
7109;BME280;29079;41.930;25.558;2023-04-21T09:07:31;99120.41;;;17.00;56.24
7109;BME280;29079;41.930;25.558;2023-04-21T09:10:05;99118.47;;;16.79;55.72
7109;BME280;29079;41.930;25.558;2023-04-21T09:12:39;99115.94;;;16.78;54.78
7109;BME280;29079;41.930;25.558;2023-04-21T09:15:12;99117.44;;;16.80;56.69
7109;BME280;29079;41.930;25.558;2023-04-21T09:17:45;99111.88;;;16.97;56.33
7109;BME280;29079;41.930;25.558;2023-04-21T09:20:20;99107.22;;;17.05;56.19
7109;BME280;29079;41.930;25.558;2023-04-21T09:22:54;99098.25;;;17.20;54.06
7109;BME280;29079;41.930;25.558;2023-04-21T09:25:27;99095.81;;;17.25;55.76
7109;BME280;29079;41.930;25.558;2023-04-21T09:28:05;99099.44;;;17.54;54.59
7109;BME280;29079;41.930;25.558;2023-04-21T09:30:39;99090.19;;;17.42;54.49
7109;BME280;29079;41.930;25.558;2023-04-21T09:33:15;99088.78;;;17.24;54.36
7109;BME280;29079;41.930;25.558;2023-04-21T09:36:01;99089.06;;;17.14;55.76
7109;BME280;29079;41.930;25.558;2023-04-21T09:38:34;99085.63;;;17.42;55.78
7109;BME280;29079;41.930;25.558;2023-04-21T09:41:08;99085.50;;;17.29;58.30
7109;BME280;29079;41.930;25.558;2023-04-21T09:43:41;99086.31;;;17.29;58.27
7109;BME280;29079;41.930;25.558;2023-04-21T09:46:15;99079.94;;;17.52;55.37
7109;BME280;29079;41.930;25.558;2023-04-21T09:48:49;99083.44;;;17.52;56.67
7109;BME280;29079;41.930;25.558;2023-04-21T09:51:25;99080.72;;;17.46;55.08
7109;BME280;29079;41.930;25.558;2023-04-21T09:54:19;99088.25;;;17.57;52.10
7109;BME280;29079;41.930;25.558;2023-04-21T09:56:56;99084.34;;;17.60;52.21
7109;BME280;29079;41.930;25.558;2023-04-21T09:59:31;99084.47;;;17.73;54.29
7109;BME280;29079;41.930;25.558;2023-04-21T10:02:04;99080.13;;;17.72;55.99
7109;BME280;29079;41.930;25.558;2023-04-21T10:04:39;99092.75;;;17.71;55.32
7109;BME280;29079;41.930;25.558;2023-04-21T10:07:15;99079.63;;;17.62;53.25
7109;BME280;29079;41.930;25.558;2023-04-21T10:09:50;99075.75;;;17.92;52.62
7109;BME280;29079;41.930;25.558;2023-04-21T10:12:25;99073.88;;;17.71;53.79
7109;BME280;29079;41.930;25.558;2023-04-21T10:15:02;99080.56;;;17.97;53.57
7109;BME280;29079;41.930;25.558;2023-04-21T10:17:36;99077.28;;;17.80;53.19
7109;BME280;29079;41.930;25.558;2023-04-21T10:20:09;99058.91;;;17.90;53.72
7109;BME280;29079;41.930;25.558;2023-04-21T10:22:49;99061.66;;;17.97;50.43
7109;BME280;29079;41.930;25.558;2023-04-21T10:25:29;99063.66;;;17.88;49.58
7109;BME280;29079;41.930;25.558;2023-04-21T10:28:04;99058.44;;;17.87;46.63
7109;BME280;29079;41.930;25.558;2023-04-21T10:30:38;99053.38;;;17.99;52.59
7109;BME280;29079;41.930;25.558;2023-04-21T10:33:11;99056.00;;;17.92;49.63
7109;BME280;29079;41.930;25.558;2023-04-21T10:35:59;99051.75;;;18.04;50.21
7109;BME280;29079;41.930;25.558;2023-04-21T10:38:39;99049.75;;;18.13;45.71
7109;BME280;29079;41.930;25.558;2023-04-21T10:41:25;99041.59;;;18.06;45.91
7109;BME280;29079;41.930;25.558;2023-04-21T10:43:59;99048.88;;;18.41;47.54
7109;BME280;29079;41.930;25.558;2023-04-21T10:46:33;99052.50;;;18.20;41.97
7109;BME280;29079;41.930;25.558;2023-04-21T10:49:07;99051.03;;;18.24;43.81
7109;BME280;29079;41.930;25.558;2023-04-21T10:54:40;99042.81;;;18.32;44.34
7109;BME280;29079;41.930;25.558;2023-04-21T10:57:14;99049.91;;;18.40;44.61
7109;BME280;29079;41.930;25.558;2023-04-21T10:59:48;99053.81;;;18.31;43.37
7109;BME280;29079;41.930;25.558;2023-04-21T11:02:21;99054.13;;;18.14;42.32
7109;BME280;29079;41.930;25.558;2023-04-21T11:04:54;99049.00;;;18.26;40.84
7109;BME280;29079;41.930;25.558;2023-04-21T11:07:28;99055.75;;;18.43;42.55
7109;BME280;29079;41.930;25.558;2023-04-21T11:10:03;99042.03;;;18.45;44.72
7109;BME280;29079;41.930;25.558;2023-04-21T11:12:38;99049.91;;;18.75;43.79
7109;BME280;29079;41.930;25.558;2023-04-21T11:15:12;99054.59;;;18.59;43.24
7109;BME280;29079;41.930;25.558;2023-04-21T11:17:48;99062.28;;;18.62;45.20
7109;BME280;29079;41.930;25.558;2023-04-21T11:20:22;99057.03;;;18.54;46.33
7109;BME280;29079;41.930;25.558;2023-04-21T11:22:55;99057.81;;;18.76;42.73
7109;BME280;29079;41.930;25.558;2023-04-21T11:25:29;99055.09;;;18.76;43.02
7109;BME280;29079;41.930;25.558;2023-04-21T11:28:03;99055.81;;;18.50;42.14
7109;BME280;29079;41.930;25.558;2023-04-21T11:30:36;99056.38;;;18.45;44.52
7109;BME280;29079;41.930;25.558;2023-04-21T11:33:10;99052.44;;;18.48;46.84
7109;BME280;29079;41.930;25.558;2023-04-21T11:35:43;99045.88;;;18.57;44.72
7109;BME280;29079;41.930;25.558;2023-04-21T11:38:16;99046.34;;;18.74;45.78
7109;BME280;29079;41.930;25.558;2023-04-21T11:40:51;99055.41;;;18.60;46.28
7109;BME280;29079;41.930;25.558;2023-04-21T11:43:25;99046.34;;;18.68;47.44
7109;BME280;29079;41.930;25.558;2023-04-21T11:46:09;99044.25;;;18.70;44.47
7109;BME280;29079;41.930;25.558;2023-04-21T11:48:43;99047.91;;;18.55;44.94
7109;BME280;29079;41.930;25.558;2023-04-21T11:51:17;99048.78;;;18.62;45.42
7109;BME280;29079;41.930;25.558;2023-04-21T11:53:53;99042.56;;;18.62;45.18
7109;BME280;29079;41.930;25.558;2023-04-21T11:56:27;99054.53;;;18.46;45.21
7109;BME280;29079;41.930;25.558;2023-04-21T11:59:00;99052.31;;;18.21;44.89
7109;BME280;29079;41.930;25.558;2023-04-21T12:01:41;99056.50;;;18.31;46.04
7109;BME280;29079;41.930;25.558;2023-04-21T12:04:15;99051.50;;;18.27;46.49
7109;BME280;29079;41.930;25.558;2023-04-21T12:06:55;99047.56;;;18.30;48.32
7109;BME280;29079;41.930;25.558;2023-04-21T12:09:28;99051.16;;;18.37;52.46
7109;BME280;29079;41.930;25.558;2023-04-21T12:12:04;99067.28;;;18.59;52.57
7109;BME280;29079;41.930;25.558;2023-04-21T12:14:39;99060.53;;;18.41;54.99
7109;BME280;29079;41.930;25.558;2023-04-21T12:17:14;99059.75;;;18.54;53.26
7109;BME280;29079;41.930;25.558;2023-04-21T12:19:47;99061.28;;;18.64;54.19
7109;BME280;29079;41.930;25.558;2023-04-21T12:22:21;99050.50;;;18.35;55.49
7109;BME280;29079;41.930;25.558;2023-04-21T12:24:54;99050.28;;;18.02;54.46
7109;BME280;29079;41.930;25.558;2023-04-21T12:27:29;99048.06;;;18.12;54.19
7109;BME280;29079;41.930;25.558;2023-04-21T12:30:02;99042.78;;;18.25;54.84
7109;BME280;29079;41.930;25.558;2023-04-21T12:32:35;99037.75;;;18.22;53.72
7109;BME280;29079;41.930;25.558;2023-04-21T12:35:08;99029.94;;;18.34;54.98
7109;BME280;29079;41.930;25.558;2023-04-21T12:37:43;99032.03;;;18.39;54.52
7109;BME280;29079;41.930;25.558;2023-04-21T12:40:16;99030.97;;;18.33;52.59
7109;BME280;29079;41.930;25.558;2023-04-21T12:42:51;99028.66;;;18.30;55.34
7109;BME280;29079;41.930;25.558;2023-04-21T12:45:24;99025.97;;;18.30;51.46
7109;BME280;29079;41.930;25.558;2023-04-21T12:47:57;99026.56;;;18.25;52.27
7109;BME280;29079;41.930;25.558;2023-04-21T12:50:31;99032.88;;;18.39;51.55
7109;BME280;29079;41.930;25.558;2023-04-21T12:53:06;99026.25;;;18.49;52.07
7109;BME280;29079;41.930;25.558;2023-04-21T12:55:39;99038.28;;;18.39;51.66
7109;BME280;29079;41.930;25.558;2023-04-21T12:58:29;99022.50;;;18.43;53.24
7109;BME280;29079;41.930;25.558;2023-04-21T13:01:02;99019.63;;;18.51;53.90
7109;BME280;29079;41.930;25.558;2023-04-21T13:03:35;99034.53;;;18.40;49.92
7109;BME280;29079;41.930;25.558;2023-04-21T13:06:09;99022.13;;;18.18;50.57
7109;BME280;29079;41.930;25.558;2023-04-21T13:08:42;99013.22;;;18.17;53.55
7109;BME280;29079;41.930;25.558;2023-04-21T13:11:15;99029.34;;;18.39;50.72
7109;BME280;29079;41.930;25.558;2023-04-21T13:13:50;99030.56;;;18.36;51.52
7109;BME280;29079;41.930;25.558;2023-04-21T13:16:23;99021.94;;;18.19;56.35
7109;BME280;29079;41.930;25.558;2023-04-21T13:19:00;99022.41;;;18.23;56.06
7109;BME280;29079;41.930;25.558;2023-04-21T13:21:34;99027.13;;;18.14;51.60
7109;BME280;29079;41.930;25.558;2023-04-21T13:24:07;99020.72;;;18.22;52.98
7109;BME280;29079;41.930;25.558;2023-04-21T13:26:45;99018.56;;;18.10;51.45
7109;BME280;29079;41.930;25.558;2023-04-21T13:29:19;99020.19;;;18.05;51.69
7109;BME280;29079;41.930;25.558;2023-04-21T13:31:53;99020.91;;;18.20;55.50
7109;BME280;29079;41.930;25.558;2023-04-21T13:34:26;99027.41;;;18.33;53.98
7109;BME280;29079;41.930;25.558;2023-04-21T13:37:00;99029.75;;;18.42;60.62